Time;durP1;ratioP1;P1;durP2;ratioP2;P2;SDS_P1;SDS_P2;PMS_P1;PMS_P2;Temp;Humidity;BMP_temperature;BMP_pressure;BME280_temperature;BME280_humidity;BME280_pressure;Samples;Min_cycle;Max_cycle;Signal;HPM_P1;HPM_P2
2022/10/03 00:01:08;;;;;;;1.07;0.97;;;10.70;97.30;;;;;;5033426;28;20447;-88
2022/10/03 00:04:07;;;;;;;4.10;1.37;;;10.70;97.30;;;;;;5034344;28;20427;-87
2022/10/03 00:06:36;;;;;;;1.10;1.00;;;10.70;97.30;;;;;;5034044;28;20423;-88
2022/10/03 00:09:46;;;;;;;3.60;2.60;;;10.70;97.30;;;;;;5020825;28;20512;-88
2022/10/03 00:13:27;;;;;;;1.10;1.00;;;10.70;97.30;;;;;;5033262;28;20526;-88
2022/10/03 00:16:36;;;;;;;1.20;1.10;;;10.70;97.30;;;;;;5026959;28;20415;-90
2022/10/03 00:19:46;;;;;;;1.67;1.33;;;10.60;97.30;;;;;;4954016;28;20541;-88
2022/10/03 00:22:56;;;;;;;1.00;0.90;;;10.60;97.30;;;;;;4937786;29;20430;-87
2022/10/03 00:25:46;;;;;;;1.53;1.23;;;10.50;97.30;;;;;;4988299;28;20411;-88
2022/10/03 00:28:22;;;;;;;1.20;1.00;;;10.50;97.30;;;;;;5031851;28;20548;-88
2022/10/03 00:31:08;;;;;;;1.97;1.63;;;10.50;97.30;;;;;;5032292;28;20522;-87
2022/10/03 00:33:51;;;;;;;1.00;0.90;;;10.40;97.30;;;;;;5021792;28;20422;-88
2022/10/03 00:36:34;;;;;;;1.40;1.30;;;10.40;97.30;;;;;;5019826;28;20472;-87
2022/10/03 00:39:11;;;;;;;12.83;1.53;;;10.40;97.30;;;;;;5032049;28;20525;-88
2022/10/03 00:42:22;;;;;;;4.03;1.40;;;10.40;97.30;;;;;;5022771;28;20431;-87
2022/10/03 00:45:19;;;;;;;1.03;0.97;;;10.40;97.30;;;;;;5021140;28;20510;-87
2022/10/03 00:48:07;;;;;;;1.87;1.77;;;10.40;97.30;;;;;;5032641;28;20470;-88
2022/10/03 00:50:51;;;;;;;0.87;0.80;;;10.40;97.30;;;;;;5031805;28;20439;-88
2022/10/03 00:53:34;;;;;;;1.00;0.90;;;10.40;97.30;;;;;;5048703;28;20462;-88
2022/10/03 00:56:26;;;;;;;1.67;1.60;;;10.40;97.30;;;;;;5019796;28;20408;-88
2022/10/03 00:59:07;;;;;;;1.00;0.90;;;10.40;97.30;;;;;;5032470;28;20470;-87
2022/10/03 01:01:41;;;;;;;3.07;2.03;;;10.30;97.30;;;;;;5019332;28;20424;-87
2022/10/03 01:04:31;;;;;;;1.43;1.00;;;10.30;97.30;;;;;;5019179;28;20550;-87
2022/10/03 01:07:05;;;;;;;2.30;1.63;;;10.40;97.30;;;;;;5031164;28;20828;-88
2022/10/03 01:09:56;;;;;;;4.00;1.67;;;10.40;97.30;;;;;;5032417;28;20790;-88
2022/10/03 01:12:40;;;;;;;1.77;1.30;;;10.40;97.30;;;;;;5036010;28;20930;-88
2022/10/03 01:15:14;;;;;;;1.00;0.90;;;10.40;97.30;;;;;;5031352;28;20446;-87
2022/10/03 01:18:07;;;;;;;1.50;1.40;;;10.40;97.30;;;;;;5031006;28;20423;-88
2022/10/03 01:20:40;;;;;;;0.97;0.87;;;10.40;97.30;;;;;;5019630;28;20801;-87
2022/10/03 01:23:42;;;;;;;1.10;1.00;;;10.40;97.30;;;;;;5018391;28;20423;-88
2022/10/03 01:26:25;;;;;;;1.77;1.67;;;10.40;97.30;;;;;;5031341;28;20812;-88
2022/10/03 01:32:07;;;;;;;1.10;1.00;;;10.50;97.30;;;;;;5009180;28;20395;-88
2022/10/03 01:34:53;;;;;;;1.23;1.13;;;10.50;97.30;;;;;;5030989;28;20788;-88
2022/10/03 01:37:36;;;;;;;1.30;1.20;;;10.50;97.30;;;;;;5030755;28;20415;-87
2022/10/03 01:40:28;;;;;;;1.30;1.20;;;10.50;97.30;;;;;;5020267;28;20463;-87
2022/10/03 01:43:11;;;;;;;1.47;1.30;;;10.50;97.30;;;;;;5030722;28;20450;-87
2022/10/03 01:46:03;;;;;;;1.10;1.00;;;10.50;97.30;;;;;;5030016;28;20458;-88
2022/10/03 01:48:41;;;;;;;0.70;0.70;;;10.50;97.30;;;;;;5031916;28;20798;-87
2022/10/03 01:51:20;;;;;;;3.50;1.23;;;10.50;97.30;;;;;;5030952;28;20426;-87
2022/10/03 01:54:10;;;;;;;2.00;1.37;;;10.50;97.30;;;;;;5030364;28;20514;-88
2022/10/03 01:56:44;;;;;;;2.00;1.20;;;10.50;97.30;;;;;;5030707;28;20485;-87
2022/10/03 01:59:20;;;;;;;1.03;0.83;;;10.50;97.30;;;;;;5030091;28;20443;-89
2022/10/03 02:02:19;;;;;;;1.00;0.90;;;10.60;97.30;;;;;;5030694;28;20415;-87
2022/10/03 02:04:52;;;;;;;1.03;0.93;;;10.60;97.30;;;;;;5017823;28;20427;-87
2022/10/03 02:07:46;;;;;;;0.90;0.90;;;10.60;97.30;;;;;;5030206;28;20554;-88
2022/10/03 02:10:38;;;;;;;11.00;2.50;;;10.60;97.30;;;;;;5030226;28;20456;-87
2022/10/03 02:13:04;;;;;;;1.00;0.90;;;10.60;97.30;;;;;;5030342;28;20896;-87
2022/10/03 02:15:53;;;;;;;1.63;1.37;;;10.60;97.30;;;;;;5031827;28;20489;-86
2022/10/03 02:18:47;;;;;;;0.90;0.90;;;10.60;97.30;;;;;;5031481;28;20188;-88
2022/10/03 02:21:22;;;;;;;1.10;1.00;;;10.60;97.30;;;;;;5030144;28;20431;-87
2022/10/03 02:24:01;;;;;;;1.67;1.40;;;10.60;97.30;;;;;;5030256;28;20496;-87
2022/10/03 02:26:48;;;;;;;1.13;1.10;;;10.60;97.30;;;;;;5026738;28;20419;-87
2022/10/03 02:29:25;;;;;;;1.50;1.37;;;10.70;97.30;;;;;;5024369;28;20504;-87
2022/10/03 02:32:22;;;;;;;1.40;1.30;;;10.70;97.30;;;;;;5018759;28;20450;-88
2022/10/03 02:35:16;;;;;;;8.40;1.67;;;10.70;97.30;;;;;;5029806;28;20429;-87
2022/10/03 02:38:00;;;;;;;5.60;2.23;;;10.70;97.30;;;;;;5029624;28;20473;-88
2022/10/03 02:40:50;;;;;;;1.20;1.20;;;10.70;97.30;;;;;;5030042;28;20451;-86
2022/10/03 02:43:22;;;;;;;1.10;1.00;;;10.70;97.30;;;;;;5015713;28;20423;-88
2022/10/03 02:45:51;;;;;;;1.37;1.30;;;10.70;97.30;;;;;;5029963;28;20441;-88
2022/10/03 02:48:46;;;;;;;4.73;1.77;;;10.70;97.30;;;;;;5030130;28;20628;-87
2022/10/03 02:51:25;;;;;;;1.30;1.27;;;10.70;97.30;;;;;;5013812;28;20984;-87
2022/10/03 02:54:16;;;;;;;1.17;1.07;;;10.70;97.30;;;;;;5024897;28;20565;-87
2022/10/03 02:57:01;;;;;;;1.63;1.17;;;10.70;97.30;;;;;;5032205;28;20454;-88
2022/10/03 02:59:43;;;;;;;1.33;1.23;;;10.70;97.30;;;;;;5049950;28;20435;-88
2022/10/03 03:02:36;;;;;;;1.00;0.90;;;10.70;97.30;;;;;;5032198;28;20426;-88
2022/10/03 03:05:26;;;;;;;1.07;0.97;;;10.70;97.30;;;;;;5032466;28;20752;-87
2022/10/03 03:08:32;;;;;;;1.50;1.40;;;10.70;97.30;;;;;;5022580;28;20450;-88
2022/10/03 03:11:19;;;;;;;2.20;1.10;;;10.70;97.30;;;;;;5026334;28;20434;-88
2022/10/03 03:14:10;;;;;;;0.90;0.90;;;10.80;97.30;;;;;;5022347;28;20419;-87
2022/10/03 03:17:07;;;;;;;1.07;0.97;;;10.80;97.30;;;;;;5033279;28;20992;-88
2022/10/03 03:20:00;;;;;;;1.40;1.30;;;10.80;97.30;;;;;;5033830;28;20443;-88
2022/10/03 03:22:50;;;;;;;4.20;1.53;;;10.80;97.30;;;;;;5023311;28;20416;-88
2022/10/03 03:25:54;;;;;;;0.77;0.73;;;10.80;97.30;;;;;;5049006;28;20411;-88
2022/10/03 03:28:35;;;;;;;1.10;0.90;;;10.80;97.30;;;;;;5047353;28;20984;-87
2022/10/03 03:31:08;;;;;;;1.47;1.40;;;10.80;97.30;;;;;;5033246;28;20427;-87
2022/10/03 03:33:43;;;;;;;1.27;1.00;;;10.80;97.30;;;;;;5021070;28;20418;-87
2022/10/03 03:36:21;;;;;;;3.43;1.57;;;10.80;97.30;;;;;;5034824;28;20414;-87
2022/10/03 03:39:13;;;;;;;1.00;1.00;;;10.80;97.30;;;;;;5019368;28;20478;-87
2022/10/03 03:41:53;;;;;;;1.10;0.90;;;10.80;97.30;;;;;;5023487;28;20462;-87
2022/10/03 03:44:38;;;;;;;2.93;1.20;;;10.80;97.30;;;;;;5032044;28;20415;-87
2022/10/03 03:47:29;;;;;;;2.03;1.60;;;10.80;97.30;;;;;;5034502;28;20419;-87
2022/10/03 03:50:24;;;;;;;1.70;1.60;;;10.90;97.30;;;;;;5019163;28;20539;-86
2022/10/03 03:53:14;;;;;;;1.73;1.30;;;10.90;97.30;;;;;;5033336;28;20412;-87
2022/10/03 03:56:04;;;;;;;1.20;1.00;;;10.90;97.30;;;;;;5023835;28;21000;-87
2022/10/03 03:58:44;;;;;;;14.97;1.53;;;10.90;97.30;;;;;;5033991;28;20408;-87
2022/10/03 04:01:25;;;;;;;1.00;1.00;;;10.90;97.30;;;;;;5019600;28;20408;-88
2022/10/03 04:04:16;;;;;;;1.20;1.20;;;10.80;97.30;;;;;;5032844;28;20852;-87
2022/10/03 04:07:09;;;;;;;1.53;1.43;;;10.90;97.30;;;;;;5031974;28;20952;-88
2022/10/03 04:09:54;;;;;;;2.03;1.40;;;10.80;97.30;;;;;;5031715;28;20470;-87
2022/10/03 04:12:28;;;;;;;1.10;1.00;;;10.80;97.30;;;;;;5040165;28;20506;-87
2022/10/03 04:15:29;;;;;;;1.03;0.90;;;10.90;97.30;;;;;;5031845;28;20423;-87
2022/10/03 04:21:49;;;;;;;1.87;1.77;;;10.90;97.30;;;;;;5033681;28;20403;-87
2022/10/03 04:24:20;;;;;;;1.20;1.10;;;10.90;97.30;;;;;;5031938;28;20884;-87
2022/10/03 04:27:06;;;;;;;2.03;0.90;;;10.90;97.30;;;;;;5032280;28;20422;-88
2022/10/03 04:29:43;;;;;;;1.83;0.97;;;10.90;97.30;;;;;;5019366;28;20443;-87
2022/10/03 04:32:23;;;;;;;9.83;2.93;;;10.90;97.30;;;;;;5031946;28;20493;-87
2022/10/03 04:35:01;;;;;;;1.07;1.03;;;10.90;97.30;;;;;;5041489;28;20785;-87
2022/10/03 04:38:00;;;;;;;1.00;0.90;;;10.90;97.30;;;;;;5018735;28;20522;-87
2022/10/03 04:40:59;;;;;;;2.50;1.03;;;10.90;97.30;;;;;;5031701;28;20480;-87
2022/10/03 04:43:43;;;;;;;1.67;1.57;;;10.90;97.30;;;;;;5031450;28;20435;-87
2022/10/03 04:46:26;;;;;;;5.17;1.83;;;10.80;97.30;;;;;;5047030;28;20902;-87
2022/10/03 04:49:10;;;;;;;1.20;1.10;;;10.80;97.30;;;;;;5033717;28;20471;-88
2022/10/03 04:52:04;;;;;;;1.77;0.90;;;10.90;97.30;;;;;;5036026;28;20595;-88
2022/10/03 04:54:32;;;;;;;1.30;1.20;;;10.90;97.30;;;;;;5031453;28;20484;-87
2022/10/03 04:57:12;;;;;;;0.90;0.80;;;10.90;97.30;;;;;;5030631;28;20455;-87
2022/10/03 04:59:41;;;;;;;2.50;1.70;;;10.90;97.30;;;;;;5031021;28;20467;-87
2022/10/03 05:02:36;;;;;;;2.90;1.60;;;10.90;97.30;;;;;;5031218;28;20426;-87
2022/10/03 05:05:20;;;;;;;2.27;1.40;;;10.90;97.30;;;;;;5002679;28;20423;-87
2022/10/03 05:07:57;;;;;;;3.43;1.50;;;10.90;97.30;;;;;;5031161;28;20459;-87
2022/10/03 05:10:55;;;;;;;5.27;2.27;;;10.90;97.30;;;;;;5032011;28;20445;-87
2022/10/03 05:13:44;;;;;;;3.30;3.10;;;10.90;97.30;;;;;;5011412;28;20551;-87
2022/10/03 05:16:12;;;;;;;1.00;0.90;;;11.00;97.30;;;;;;5050128;28;20797;-87
2022/10/03 05:19:00;;;;;;;1.10;1.00;;;11.00;97.30;;;;;;5030934;28;20431;-87
2022/10/03 05:21:38;;;;;;;1.60;1.50;;;11.00;97.30;;;;;;4997672;28;20411;-87
2022/10/03 05:24:34;;;;;;;1.33;1.23;;;11.00;97.30;;;;;;5032051;28;20557;-88
2022/10/03 05:27:19;;;;;;;1.63;1.53;;;11.00;97.30;;;;;;5030846;28;20446;-87
2022/10/03 05:30:00;;;;;;;4.07;2.83;;;11.00;97.30;;;;;;5020346;28;20570;-87
2022/10/03 05:32:36;;;;;;;1.50;1.40;;;11.10;97.30;;;;;;5032287;28;20408;-87
2022/10/03 05:35:17;;;;;;;0.80;0.80;;;11.10;97.30;;;;;;5031274;28;20733;-87
2022/10/03 05:38:15;;;;;;;1.47;1.37;;;11.10;97.30;;;;;;5030802;28;20411;-88
2022/10/03 05:41:09;;;;;;;3.17;1.57;;;11.10;97.30;;;;;;5031740;28;20908;-87
2022/10/03 05:44:15;;;;;;;0.80;0.80;;;11.10;97.30;;;;;;5030422;28;20426;-87
2022/10/03 05:47:43;;;;;;;1.10;1.00;;;11.20;97.30;;;;;;5030511;28;20429;-88
2022/10/03 05:50:26;;;;;;;1.00;0.90;;;11.20;97.30;;;;;;5031600;28;20478;-87
2022/10/03 05:53:25;;;;;;;1.57;1.03;;;11.20;97.30;;;;;;5030841;28;20792;-88
2022/10/03 05:55:51;;;;;;;2.60;1.40;;;11.20;97.30;;;;;;5020212;28;20408;-87
2022/10/03 05:59:01;;;;;;;3.80;1.70;;;11.20;97.30;;;;;;5041341;28;20412;-88
2022/10/03 06:01:37;;;;;;;1.20;1.10;;;11.20;97.30;;;;;;5033261;28;20238;-88
2022/10/03 06:04:15;;;;;;;1.00;0.90;;;11.20;97.30;;;;;;5030220;28;20471;-87
2022/10/03 06:07:13;;;;;;;1.20;1.10;;;11.20;97.30;;;;;;5030463;28;20418;-87
2022/10/03 06:10:19;;;;;;;7.43;1.67;;;11.30;97.30;;;;;;5029652;28;20530;-88
2022/10/03 06:12:54;;;;;;;1.70;1.13;;;11.30;97.30;;;;;;5034459;28;20423;-87
2022/10/03 06:15:43;;;;;;;1.00;0.90;;;11.30;97.30;;;;;;5030267;28;20432;-88
2022/10/03 06:18:12;;;;;;;5.10;2.03;;;11.30;97.30;;;;;;5017125;28;20430;-87
2022/10/03 06:21:15;;;;;;;1.10;1.00;;;11.30;97.30;;;;;;5029730;28;20484;-87
2022/10/03 06:24:03;;;;;;;1.77;1.33;;;11.30;97.30;;;;;;4999447;28;20426;-88
2022/10/03 06:26:49;;;;;;;1.50;1.40;;;11.40;97.30;;;;;;5024367;28;20422;-87
2022/10/03 06:29:29;;;;;;;1.47;0.97;;;11.40;97.30;;;;;;5031676;28;20466;-87
2022/10/03 06:32:13;;;;;;;3.17;2.97;;;11.50;97.30;;;;;;5029885;28;20419;-88
2022/10/03 06:35:14;;;;;;;4.50;1.43;;;11.50;97.30;;;;;;5030025;28;20423;-88
2022/10/03 06:37:51;;;;;;;1.23;1.13;;;11.50;97.30;;;;;;5018494;28;20913;-87
2022/10/03 06:40:27;;;;;;;1.20;1.10;;;11.60;97.30;;;;;;5030957;28;20874;-88
2022/10/03 06:43:21;;;;;;;5.43;2.23;;;11.60;97.30;;;;;;5030404;28;20462;-88
2022/10/03 06:46:11;;;;;;;1.47;1.17;;;11.70;97.30;;;;;;5018718;28;20451;-86
2022/10/03 06:48:57;;;;;;;1.67;1.20;;;11.70;97.30;;;;;;5017838;28;20462;-87
2022/10/03 06:51:58;;;;;;;1.00;0.90;;;11.70;97.30;;;;;;5030762;28;20525;-88
2022/10/03 06:55:03;;;;;;;4.60;1.30;;;11.80;97.30;;;;;;5019476;28;20918;-88
2022/10/03 06:57:28;;;;;;;1.17;1.00;;;11.80;97.30;;;;;;5021286;28;20855;-88
2022/10/03 07:00:14;;;;;;;1.10;1.00;;;11.80;97.30;;;;;;5030147;28;20447;-89
2022/10/03 07:03:08;;;;;;;1.10;1.00;;;11.90;97.30;;;;;;5030341;28;20263;-88
2022/10/03 07:06:00;;;;;;;1.00;0.90;;;11.90;97.30;;;;;;5017027;28;20430;-88
2022/10/03 07:09:02;;;;;;;14.63;1.40;;;12.00;97.30;;;;;;5018111;28;20550;-88
2022/10/03 07:11:54;;;;;;;1.77;1.23;;;12.00;97.30;;;;;;5029462;28;20423;-87
2022/10/03 07:14:43;;;;;;;2.60;1.53;;;12.10;97.30;;;;;;5025711;28;20424;-88
2022/10/03 07:17:45;;;;;;;2.20;1.93;;;12.10;97.30;;;;;;5028308;28;20543;-87
2022/10/03 07:20:18;;;;;;;1.73;1.20;;;12.10;97.30;;;;;;5030128;28;20569;-88
2022/10/03 07:23:11;;;;;;;9.53;1.43;;;12.10;97.30;;;;;;5029849;28;20458;-88
2022/10/03 07:26:07;;;;;;;1.57;1.30;;;12.20;97.30;;;;;;5031250;28;20562;-88
2022/10/03 07:28:55;;;;;;;1.00;0.90;;;12.20;97.30;;;;;;5027808;28;20455;-89
2022/10/03 07:31:42;;;;;;;1.60;1.37;;;12.30;97.30;;;;;;5029625;28;20450;-89
2022/10/03 07:34:30;;;;;;;3.33;1.87;;;12.30;97.30;;;;;;5029857;28;20419;-88
2022/10/03 07:40:12;;;;;;;1.97;1.13;;;12.40;97.30;;;;;;5028518;28;20867;-88
2022/10/03 07:43:10;;;;;;;8.70;1.57;;;12.40;97.30;;;;;;5029791;28;20446;-88
2022/10/03 07:45:44;;;;;;;2.63;1.00;;;12.50;97.30;;;;;;4999440;28;20613;-88
2022/10/03 07:48:31;;;;;;;1.30;1.20;;;12.50;97.30;;;;;;5032985;28;20450;-88
2022/10/03 07:51:09;;;;;;;1.13;1.03;;;12.50;97.30;;;;;;5032834;28;20426;-88
2022/10/03 07:53:53;;;;;;;1.60;1.50;;;12.50;97.30;;;;;;5033746;28;20427;-88
2022/10/03 07:56:49;;;;;;;2.67;1.53;;;12.50;97.30;;;;;;5033678;28;20553;-88
2022/10/03 07:59:45;;;;;;;7.23;1.40;;;12.50;97.30;;;;;;5032924;28;20439;-88
2022/10/03 08:02:49;;;;;;;1.40;1.20;;;12.50;97.30;;;;;;5021340;28;20428;-89
2022/10/03 08:05:26;;;;;;;1.13;1.10;;;12.40;97.30;;;;;;5028651;28;20531;-88
2022/10/03 08:08:04;;;;;;;1.73;1.23;;;12.40;97.30;;;;;;5031602;28;20451;-89
2022/10/03 08:10:59;;;;;;;3.90;1.67;;;12.50;97.30;;;;;;5033124;28;20447;-88
2022/10/03 08:13:48;;;;;;;3.50;1.87;;;12.60;97.30;;;;;;5023846;28;20438;-89
2022/10/03 08:16:32;;;;;;;1.30;1.20;;;12.60;97.30;;;;;;5020328;28;20418;-88
2022/10/03 08:19:43;;;;;;;41.67;3.40;;;12.80;97.30;;;;;;5027385;28;20465;-88
2022/10/03 08:22:36;;;;;;;1.47;1.43;;;12.90;97.30;;;;;;5032665;28;20423;-88
2022/10/03 08:25:30;;;;;;;1.63;1.53;;;12.90;97.30;;;;;;5022427;28;20415;-88
2022/10/03 08:28:20;;;;;;;1.60;1.50;;;12.90;97.30;;;;;;5031900;28;20467;-88
2022/10/03 08:31:23;;;;;;;4.13;1.20;;;13.00;97.30;;;;;;5034117;28;20470;-90
2022/10/03 08:33:49;;;;;;;1.90;1.60;;;13.10;97.30;;;;;;5036475;28;20407;-88
2022/10/03 08:36:59;;;;;;;1.63;1.53;;;13.10;97.30;;;;;;5045169;28;20408;-89
2022/10/03 08:39:31;;;;;;;1.20;1.10;;;13.10;97.30;;;;;;5007206;28;20216;-89
2022/10/03 08:42:28;;;;;;;1.73;1.10;;;13.20;97.30;;;;;;5034220;28;20411;-89
2022/10/03 08:45:31;;;;;;;1.30;1.20;;;13.20;97.30;;;;;;5039817;28;20455;-89
2022/10/03 08:48:19;;;;;;;6.57;2.27;;;13.20;97.30;;;;;;5035121;28;20458;-89
2022/10/03 08:51:07;;;;;;;1.10;1.10;;;13.30;97.30;;;;;;5020461;28;20489;-89
2022/10/03 08:53:55;;;;;;;2.60;1.87;;;13.30;97.30;;;;;;5039212;28;20449;-91
2022/10/03 08:56:53;;;;;;;1.60;1.50;;;13.40;97.30;;;;;;5055038;28;20419;-90
2022/10/03 08:59:56;;;;;;;1.20;1.10;;;13.60;97.30;;;;;;5044713;28;20980;-88
2022/10/03 09:02:54;;;;;;;3.27;2.50;;;13.70;97.30;;;;;;5031195;28;20426;-91
2022/10/03 09:05:58;;;;;;;1.20;1.10;;;13.70;97.30;;;;;;5023488;28;20417;-88
2022/10/03 09:08:44;;;;;;;1.87;1.60;;;13.90;97.30;;;;;;5030733;28;20447;-88
2022/10/03 09:11:37;;;;;;;1.27;1.17;;;14.00;97.30;;;;;;5032552;28;20430;-89
2022/10/03 09:14:30;;;;;;;3.63;2.30;;;14.00;97.30;;;;;;5031093;28;20411;-89
2022/10/03 09:17:15;;;;;;;13.63;2.00;;;13.90;97.30;;;;;;5024530;28;20412;-90
2022/10/03 09:20:01;;;;;;;2.33;1.37;;;13.90;97.30;;;;;;5029595;28;20454;-89
2022/10/03 09:22:51;;;;;;;2.90;1.33;;;13.90;97.30;;;;;;5038204;28;20423;-89
2022/10/03 09:25:42;;;;;;;10.00;1.33;;;13.90;97.30;;;;;;5022775;28;20416;-87
2022/10/03 09:28:24;;;;;;;1.37;1.30;;;13.90;97.30;;;;;;5001210;28;20481;-89
2022/10/03 09:31:33;;;;;;;1.47;1.37;;;14.00;97.30;;;;;;5028063;28;20958;-90
2022/10/03 09:34:20;;;;;;;1.93;1.90;;;14.00;97.30;;;;;;4980587;28;20417;-89
2022/10/03 09:37:18;;;;;;;6.10;1.60;;;14.10;97.30;;;;;;5025074;28;20671;-89
2022/10/03 09:40:32;;;;;;;1.77;1.10;;;14.20;97.30;;;;;;5027592;28;20513;-88
2022/10/03 09:43:18;;;;;;;1.40;1.30;;;14.30;97.30;;;;;;5010398;28;20835;-90
2022/10/03 09:46:33;;;;;;;1.63;1.50;;;14.30;97.30;;;;;;5031940;28;20418;-89
2022/10/03 09:49:17;;;;;;;5.07;1.20;;;14.40;97.30;;;;;;5022283;28;20471;-88
2022/10/03 09:51:56;;;;;;;3.00;1.20;;;14.40;97.30;;;;;;5022619;28;20447;-89
2022/10/03 09:54:50;;;;;;;1.10;1.03;;;14.50;97.30;;;;;;5032117;28;20426;-88
2022/10/03 09:57:37;;;;;;;1.53;1.23;;;14.50;97.30;;;;;;5033043;28;20484;-89
2022/10/03 10:00:18;;;;;;;1.53;1.30;;;14.50;97.30;;;;;;5022971;28;20754;-90
2022/10/03 10:03:11;;;;;;;1.77;1.40;;;14.50;97.30;;;;;;5025126;28;20563;-90
2022/10/03 10:05:48;;;;;;;1.37;1.27;;;14.50;97.30;;;;;;5028779;28;20458;-90
2022/10/03 10:08:30;;;;;;;1.40;1.30;;;14.50;97.30;;;;;;5025972;28;20455;-89
2022/10/03 10:11:14;;;;;;;3.67;1.63;;;14.60;97.30;;;;;;5029365;28;20507;-88
2022/10/03 10:13:59;;;;;;;4.70;1.10;;;14.60;97.30;;;;;;5039196;28;20434;-89
2022/10/03 10:16:43;;;;;;;3.10;1.97;;;14.60;97.30;;;;;;5036932;28;20488;-88
2022/10/03 10:19:40;;;;;;;3.43;1.00;;;14.80;97.30;;;;;;5029995;28;21092;-90
2022/10/03 10:22:34;;;;;;;2.30;1.73;;;14.90;97.30;;;;;;5030351;28;20561;-91
2022/10/03 10:25:14;;;;;;;4.40;1.10;;;15.10;97.30;;;;;;5030956;28;20423;-89
2022/10/03 10:27:41;;;;;;;3.13;1.20;;;15.10;97.30;;;;;;5017711;28;20570;-92
2022/10/03 10:30:47;;;;;;;2.27;2.07;;;15.10;97.30;;;;;;5031983;28;20447;-90
2022/10/03 10:33:47;;;;;;;1.90;0.90;;;15.10;97.30;;;;;;5019903;28;20573;-89
2022/10/03 10:36:37;;;;;;;0.87;0.80;;;15.10;97.30;;;;;;5029597;28;20423;-89
2022/10/03 10:39:48;;;;;;;1.00;0.90;;;15.10;97.30;;;;;;5020084;28;20452;-90
2022/10/03 10:46:07;;;;;;;14.73;1.47;;;15.20;97.30;;;;;;5016115;28;20427;-91
2022/10/03 10:52:37;;;;;;;9.77;1.90;;;15.00;97.30;;;;;;5017314;28;20431;-89
2022/10/03 11:02:26;;;;;;;1.20;1.10;;;15.10;97.30;;;;;;5002877;28;20492;-91
2022/10/03 11:05:39;;;;;;;1.40;1.30;;;15.30;97.30;;;;;;4990345;28;20427;-90
2022/10/03 11:08:28;;;;;;;15.20;1.73;;;15.20;97.30;;;;;;4989730;28;20459;-90
2022/10/03 11:10:57;;;;;;;8.20;1.10;;;15.20;97.30;;;;;;5030763;28;20793;-89
2022/10/03 11:13:54;;;;;;;1.07;0.97;;;15.40;97.30;;;;;;5028697;28;20949;-91
2022/10/03 11:16:38;;;;;;;3.17;1.10;;;15.50;96.80;;;;;;5022145;28;20423;-90
2022/10/03 11:19:37;;;;;;;1.20;1.07;;;15.50;97.30;;;;;;5025240;28;20534;-90
2022/10/03 11:22:37;;;;;;;1.37;1.27;;;15.40;96.80;;;;;;5039037;28;20419;-90
2022/10/03 11:25:19;;;;;;;1.83;0.87;;;15.30;97.30;;;;;;5033491;28;20476;-91
2022/10/03 11:28:18;;;;;;;1.00;0.80;;;15.30;97.30;;;;;;5030242;28;20457;-91
2022/10/03 11:31:37;;;;;;;1.00;0.93;;;15.20;97.30;;;;;;5028207;28;20506;-87
2022/10/03 11:34:58;;;;;;;2.10;1.10;;;15.10;97.30;;;;;;5023810;28;20417;-90
2022/10/03 11:40:37;;;;;;;1.13;1.03;;;15.20;97.30;;;;;;5014445;28;20531;-88
2022/10/03 11:48:00;;;;;;;2.70;2.10;;;15.50;97.30;;;;;;4913242;29;20413;-87
2022/10/03 11:50:20;;;;;;;1.97;1.87;;;15.50;97.30;;;;;;4859390;29;20479;-91
2022/10/03 11:53:01;;;;;;;0.93;0.87;;;15.60;97.30;;;;;;4965879;28;20420;-88
2022/10/03 11:55:50;;;;;;;1.40;1.30;;;15.60;97.30;;;;;;4998387;28;20407;-90
2022/10/03 11:59:09;;;;;;;1.30;1.20;;;15.70;97.30;;;;;;5013474;28;20407;-89
2022/10/03 12:02:46;;;;;;;1.37;0.90;;;15.80;96.50;;;;;;5023530;28;20412;-92
2022/10/03 12:24:24;;;;;;;2.53;1.03;;;15.90;96.60;;;;;;5051007;28;20462;-90
2022/10/03 12:27:14;;;;;;;2.53;1.40;;;15.90;96.80;;;;;;5047289;28;20422;-89
2022/10/03 12:29:46;;;;;;;1.50;1.40;;;16.00;96.60;;;;;;5052021;28;20446;-90
2022/10/03 12:32:26;;;;;;;1.10;1.00;;;16.00;96.70;;;;;;5054158;28;20855;-88
2022/10/03 12:35:06;;;;;;;12.13;1.40;;;16.00;96.20;;;;;;5048072;28;20733;-89
2022/10/03 12:37:45;;;;;;;3.43;0.90;;;16.00;95.20;;;;;;5049471;28;20962;-89
2022/10/03 12:40:42;;;;;;;3.50;0.90;;;16.00;95.30;;;;;;5053762;28;21019;-90
2022/10/03 12:43:36;;;;;;;37.93;1.53;;;16.00;95.80;;;;;;5043104;28;20422;-89
2022/10/03 12:46:05;;;;;;;0.90;0.90;;;15.90;95.30;;;;;;5052479;28;20543;-90
2022/10/03 12:48:31;;;;;;;4.17;1.07;;;16.00;96.10;;;;;;5041549;28;20454;-89
2022/10/03 12:51:18;;;;;;;1.63;1.10;;;16.20;95.30;;;;;;5044170;28;20896;-89
2022/10/03 12:54:18;;;;;;;1.13;1.10;;;16.30;95.10;;;;;;5045535;28;20182;-88
2022/10/03 12:57:09;;;;;;;7.33;1.67;;;16.40;94.90;;;;;;5052186;28;20450;-89
2022/10/03 12:59:39;;;;;;;3.73;1.20;;;16.30;94.40;;;;;;5039830;28;20451;-91
2022/10/03 13:02:22;;;;;;;1.10;1.00;;;16.20;94.80;;;;;;5051531;28;20437;-89
2022/10/03 13:04:54;;;;;;;1.00;0.90;;;16.10;95.00;;;;;;5053823;28;20482;-90
2022/10/03 13:07:51;;;;;;;1.37;1.33;;;16.00;95.50;;;;;;5064009;28;20419;-89
2022/10/03 13:10:46;;;;;;;0.97;0.87;;;16.00;95.90;;;;;;5051405;28;20446;-90
2022/10/03 13:13:31;;;;;;;1.10;1.00;;;16.00;96.10;;;;;;5046985;28;20474;-88
2022/10/03 13:16:29;;;;;;;5.60;2.00;;;15.90;96.30;;;;;;5046374;28;20965;-90
2022/10/03 13:19:26;;;;;;;1.17;1.10;;;15.90;96.30;;;;;;5051560;28;20446;-90
2022/10/03 13:22:06;;;;;;;1.20;1.10;;;15.90;96.20;;;;;;5045968;28;20837;-89
2022/10/03 13:24:40;;;;;;;1.40;1.30;;;16.00;96.30;;;;;;5039112;28;20446;-90
2022/10/03 13:27:15;;;;;;;1.20;1.10;;;15.90;96.40;;;;;;5050024;28;20417;-89
2022/10/03 13:30:04;;;;;;;2.70;1.43;;;15.90;96.40;;;;;;5050697;28;20807;-90
2022/10/03 13:32:34;;;;;;;13.07;2.63;;;16.00;96.30;;;;;;5043256;28;20502;-89
2022/10/03 13:38:39;;;;;;;0.93;0.83;;;16.00;95.00;;;;;;5052321;28;20421;-89
2022/10/03 13:41:08;;;;;;;0.90;0.90;;;16.10;94.40;;;;;;5052832;28;20419;-90
2022/10/03 13:43:37;;;;;;;2.00;0.87;;;16.10;94.40;;;;;;5052710;28;20613;-89
2022/10/03 13:46:14;;;;;;;0.93;0.83;;;16.00;93.60;;;;;;5049864;28;20425;-88
2022/10/03 13:48:45;;;;;;;1.90;1.13;;;15.90;94.40;;;;;;5046240;28;20462;-89
2022/10/03 13:51:51;;;;;;;0.90;0.80;;;15.80;94.60;;;;;;5045803;28;20415;-91
2022/10/03 13:54:40;;;;;;;1.00;0.90;;;15.70;95.20;;;;;;4949197;28;20418;-89
2022/10/03 13:57:29;;;;;;;1.13;1.03;;;15.70;95.70;;;;;;5044519;28;20443;-90
2022/10/03 14:00:09;;;;;;;6.20;1.20;;;15.70;95.90;;;;;;5048460;28;20431;-89
2022/10/03 14:02:46;;;;;;;1.20;1.20;;;15.70;96.40;;;;;;5047349;28;20429;-89
2022/10/03 14:05:21;;;;;;;1.00;0.90;;;15.70;97.00;;;;;;5033754;28;20445;-89
2022/10/03 14:08:06;;;;;;;1.10;1.00;;;15.70;97.30;;;;;;5039979;28;20608;-89
2022/10/03 14:11:06;;;;;;;1.10;1.00;;;15.60;97.30;;;;;;5033473;28;20546;-89
2022/10/03 14:13:47;;;;;;;1.40;1.10;;;15.50;97.30;;;;;;5040160;28;20730;-89
2022/10/03 14:16:30;;;;;;;1.00;0.90;;;15.60;97.30;;;;;;5044513;28;20422;-90
2022/10/03 14:19:15;;;;;;;1.30;1.20;;;15.80;97.30;;;;;;5050356;28;20533;-89
2022/10/03 14:21:59;;;;;;;1.00;0.90;;;16.10;97.10;;;;;;5045989;28;20426;-90
2022/10/03 14:24:37;;;;;;;2.17;1.33;;;16.50;96.30;;;;;;5051858;28;20426;-89
2022/10/03 14:27:50;;;;;;;4.07;1.20;;;16.90;96.00;;;;;;5049679;28;20425;-88
2022/10/03 14:30:30;;;;;;;1.50;1.40;;;17.30;95.40;;;;;;5049161;28;20445;-89
2022/10/03 14:33:05;;;;;;;2.13;1.20;;;17.60;93.90;;;;;;5040393;28;20426;-90
2022/10/03 14:35:50;;;;;;;2.03;1.43;;;17.90;93.60;;;;;;5050144;28;20805;-90
2022/10/03 14:38:56;;;;;;;1.53;1.43;;;18.10;92.90;;;;;;5037013;28;20422;-90
2022/10/03 14:41:20;;;;;;;2.97;2.23;;;18.20;91.70;;;;;;5042075;28;20565;-89
2022/10/03 14:43:57;;;;;;;9.20;2.00;;;18.30;91.70;;;;;;5048317;28;20522;-89
2022/10/03 14:46:26;;;;;;;16.83;1.87;;;18.30;90.80;;;;;;5047606;28;20421;-88
2022/10/03 14:48:57;;;;;;;1.83;1.73;;;18.40;91.00;;;;;;5042899;28;20463;-90
2022/10/03 14:51:32;;;;;;;2.07;0.97;;;18.10;90.10;;;;;;5039909;28;20448;-90
2022/10/03 14:54:19;;;;;;;2.30;1.00;;;17.70;90.90;;;;;;5044700;28;20512;-89
2022/10/03 14:56:46;;;;;;;1.00;0.90;;;17.40;91.90;;;;;;5047085;28;20411;-89
2022/10/03 15:02:50;;;;;;;3.27;1.20;;;16.80;93.10;;;;;;4989495;28;20443;-88
2022/10/03 15:06:00;;;;;;;0.80;0.80;;;16.70;93.60;;;;;;4976213;28;20515;-90
2022/10/03 15:09:19;;;;;;;1.77;1.10;;;16.60;94.10;;;;;;4968061;28;20536;-90
2022/10/03 15:12:29;;;;;;;9.93;1.37;;;16.50;94.50;;;;;;4970078;28;20416;-88
2022/10/03 15:16:39;;;;;;;1.10;1.00;;;16.30;95.00;;;;;;4987570;28;20416;-89
2022/10/03 15:18:39;;;;;;;1.30;1.27;;;16.30;95.10;;;;;;4913271;29;20447;-89
2022/10/03 15:28:28;;;;;;;1.20;1.10;;;16.00;96.00;;;;;;4940620;28;21000;-89
2022/10/03 15:31:39;;;;;;;1.20;1.10;;;16.00;96.20;;;;;;4954474;28;20421;-89
2022/10/03 15:34:38;;;;;;;3.47;1.10;;;16.00;96.20;;;;;;4956344;28;20414;-89
2022/10/03 15:37:39;;;;;;;1.57;1.20;;;16.00;96.10;;;;;;4955041;28;20414;-89